sensor_id;sensor_type;location;lat;lon;timestamp;P1;durP1;ratioP1;P2;durP2;ratioP2
72427;SDS011;60419;48.880;18.036;2023-10-08T00:01:57;6.03;;;2.20;;
72427;SDS011;60419;48.880;18.036;2023-10-08T00:04:43;7.20;;;2.60;;
72427;SDS011;60419;48.880;18.036;2023-10-08T00:07:29;7.30;;;2.55;;
72427;SDS011;60419;48.880;18.036;2023-10-08T00:10:14;6.30;;;2.60;;
72427;SDS011;60419;48.880;18.036;2023-10-08T00:13:00;5.55;;;2.78;;
72427;SDS011;60419;48.880;18.036;2023-10-08T00:15:46;6.10;;;2.40;;
72427;SDS011;60419;48.880;18.036;2023-10-08T00:18:38;6.80;;;2.30;;
72427;SDS011;60419;48.880;18.036;2023-10-08T00:21:26;6.05;;;2.42;;
72427;SDS011;60419;48.880;18.036;2023-10-08T00:24:11;7.28;;;2.42;;
72427;SDS011;60419;48.880;18.036;2023-10-08T00:26:57;6.32;;;2.45;;
72427;SDS011;60419;48.880;18.036;2023-10-08T00:29:42;7.68;;;3.05;;
72427;SDS011;60419;48.880;18.036;2023-10-08T00:32:28;8.70;;;2.75;;
72427;SDS011;60419;48.880;18.036;2023-10-08T00:35:15;8.52;;;2.92;;
72427;SDS011;60419;48.880;18.036;2023-10-08T00:38:05;5.72;;;2.20;;
72427;SDS011;60419;48.880;18.036;2023-10-08T00:40:53;7.13;;;2.70;;
72427;SDS011;60419;48.880;18.036;2023-10-08T00:43:40;5.88;;;2.53;;
72427;SDS011;60419;48.880;18.036;2023-10-08T00:46:27;6.28;;;2.55;;
72427;SDS011;60419;48.880;18.036;2023-10-08T00:49:19;7.50;;;2.85;;
72427;SDS011;60419;48.880;18.036;2023-10-08T00:52:08;7.00;;;2.67;;
72427;SDS011;60419;48.880;18.036;2023-10-08T00:54:54;9.10;;;3.00;;
72427;SDS011;60419;48.880;18.036;2023-10-08T00:57:49;8.10;;;2.65;;
72427;SDS011;60419;48.880;18.036;2023-10-08T01:00:42;6.57;;;2.65;;
72427;SDS011;60419;48.880;18.036;2023-10-08T01:03:28;6.78;;;2.70;;
72427;SDS011;60419;48.880;18.036;2023-10-08T01:06:14;9.07;;;2.63;;
72427;SDS011;60419;48.880;18.036;2023-10-08T01:09:03;5.45;;;2.38;;
72427;SDS011;60419;48.880;18.036;2023-10-08T01:15:09;7.40;;;2.30;;
72427;SDS011;60419;48.880;18.036;2023-10-08T01:18:13;8.18;;;2.85;;
72427;SDS011;60419;48.880;18.036;2023-10-08T01:21:03;9.18;;;2.65;;
72427;SDS011;60419;48.880;18.036;2023-10-08T01:23:56;5.38;;;2.50;;
72427;SDS011;60419;48.880;18.036;2023-10-08T01:26:45;6.63;;;2.25;;
72427;SDS011;60419;48.880;18.036;2023-10-08T01:29:30;8.63;;;2.80;;
72427;SDS011;60419;48.880;18.036;2023-10-08T01:32:17;6.78;;;2.40;;
72427;SDS011;60419;48.880;18.036;2023-10-08T01:35:04;10.10;;;2.70;;
72427;SDS011;60419;48.880;18.036;2023-10-08T01:38:03;6.97;;;2.67;;
72427;SDS011;60419;48.880;18.036;2023-10-08T01:40:49;5.72;;;2.30;;
72427;SDS011;60419;48.880;18.036;2023-10-08T01:43:38;8.10;;;2.53;;
72427;SDS011;60419;48.880;18.036;2023-10-08T01:46:24;10.32;;;2.92;;
72427;SDS011;60419;48.880;18.036;2023-10-08T01:49:11;9.98;;;2.72;;
72427;SDS011;60419;48.880;18.036;2023-10-08T01:52:00;6.95;;;2.50;;
72427;SDS011;60419;48.880;18.036;2023-10-08T01:54:52;6.65;;;2.78;;
72427;SDS011;60419;48.880;18.036;2023-10-08T01:57:40;8.60;;;2.55;;
72427;SDS011;60419;48.880;18.036;2023-10-08T02:00:28;8.05;;;3.10;;
72427;SDS011;60419;48.880;18.036;2023-10-08T02:03:13;7.40;;;2.80;;
72427;SDS011;60419;48.880;18.036;2023-10-08T02:06:00;8.00;;;2.90;;
72427;SDS011;60419;48.880;18.036;2023-10-08T02:08:50;10.93;;;2.80;;
72427;SDS011;60419;48.880;18.036;2023-10-08T02:11:45;8.52;;;2.67;;
72427;SDS011;60419;48.880;18.036;2023-10-08T02:14:35;8.77;;;2.63;;
72427;SDS011;60419;48.880;18.036;2023-10-08T02:17:20;11.93;;;3.25;;
72427;SDS011;60419;48.880;18.036;2023-10-08T02:20:06;7.97;;;2.95;;
72427;SDS011;60419;48.880;18.036;2023-10-08T02:22:53;8.45;;;2.40;;
72427;SDS011;60419;48.880;18.036;2023-10-08T02:25:39;8.40;;;2.78;;
72427;SDS011;60419;48.880;18.036;2023-10-08T02:28:25;7.05;;;3.00;;
72427;SDS011;60419;48.880;18.036;2023-10-08T02:31:10;8.45;;;3.10;;
72427;SDS011;60419;48.880;18.036;2023-10-08T02:33:56;7.05;;;2.95;;
72427;SDS011;60419;48.880;18.036;2023-10-08T02:36:44;8.48;;;2.58;;
72427;SDS011;60419;48.880;18.036;2023-10-08T02:39:29;6.80;;;2.97;;
72427;SDS011;60419;48.880;18.036;2023-10-08T02:42:17;8.85;;;3.03;;
72427;SDS011;60419;48.880;18.036;2023-10-08T02:45:03;9.45;;;2.92;;
72427;SDS011;60419;48.880;18.036;2023-10-08T02:47:49;10.02;;;2.97;;
72427;SDS011;60419;48.880;18.036;2023-10-08T02:50:38;11.90;;;2.95;;
72427;SDS011;60419;48.880;18.036;2023-10-08T02:53:24;8.60;;;3.28;;
72427;SDS011;60419;48.880;18.036;2023-10-08T02:56:10;7.38;;;2.80;;
72427;SDS011;60419;48.880;18.036;2023-10-08T02:58:59;8.73;;;2.60;;
72427;SDS011;60419;48.880;18.036;2023-10-08T03:01:45;9.10;;;2.58;;
72427;SDS011;60419;48.880;18.036;2023-10-08T03:04:32;9.90;;;2.70;;
72427;SDS011;60419;48.880;18.036;2023-10-08T03:07:18;8.00;;;2.78;;
72427;SDS011;60419;48.880;18.036;2023-10-08T03:10:07;5.93;;;2.75;;
72427;SDS011;60419;48.880;18.036;2023-10-08T03:13:02;7.45;;;2.50;;
72427;SDS011;60419;48.880;18.036;2023-10-08T03:15:51;7.97;;;3.13;;
72427;SDS011;60419;48.880;18.036;2023-10-08T03:18:45;7.40;;;2.85;;
72427;SDS011;60419;48.880;18.036;2023-10-08T03:21:35;9.07;;;2.67;;
72427;SDS011;60419;48.880;18.036;2023-10-08T03:24:23;6.55;;;2.63;;
72427;SDS011;60419;48.880;18.036;2023-10-08T03:27:15;9.85;;;2.80;;
72427;SDS011;60419;48.880;18.036;2023-10-08T03:30:05;6.80;;;2.50;;
72427;SDS011;60419;48.880;18.036;2023-10-08T03:32:51;10.52;;;3.47;;
72427;SDS011;60419;48.880;18.036;2023-10-08T03:35:40;6.65;;;2.70;;
72427;SDS011;60419;48.880;18.036;2023-10-08T03:38:27;8.20;;;2.88;;
72427;SDS011;60419;48.880;18.036;2023-10-08T03:41:13;9.35;;;2.40;;
72427;SDS011;60419;48.880;18.036;2023-10-08T03:44:02;10.32;;;3.30;;
72427;SDS011;60419;48.880;18.036;2023-10-08T03:46:50;6.63;;;2.80;;
72427;SDS011;60419;48.880;18.036;2023-10-08T03:49:37;7.30;;;2.75;;
72427;SDS011;60419;48.880;18.036;2023-10-08T03:52:29;6.28;;;2.55;;
72427;SDS011;60419;48.880;18.036;2023-10-08T03:55:15;9.55;;;2.55;;
72427;SDS011;60419;48.880;18.036;2023-10-08T03:58:03;6.53;;;2.83;;
72427;SDS011;60419;48.880;18.036;2023-10-08T04:00:49;7.85;;;2.38;;
72427;SDS011;60419;48.880;18.036;2023-10-08T04:03:35;7.28;;;2.50;;
72427;SDS011;60419;48.880;18.036;2023-10-08T04:06:38;7.75;;;2.92;;
72427;SDS011;60419;48.880;18.036;2023-10-08T04:09:24;9.05;;;2.88;;
72427;SDS011;60419;48.880;18.036;2023-10-08T04:12:09;7.57;;;2.53;;
72427;SDS011;60419;48.880;18.036;2023-10-08T04:14:56;7.20;;;2.70;;
72427;SDS011;60419;48.880;18.036;2023-10-08T04:17:41;7.85;;;2.80;;
72427;SDS011;60419;48.880;18.036;2023-10-08T04:20:30;6.18;;;2.60;;
72427;SDS011;60419;48.880;18.036;2023-10-08T04:23:18;6.63;;;2.80;;
72427;SDS011;60419;48.880;18.036;2023-10-08T04:26:05;7.65;;;3.00;;
72427;SDS011;60419;48.880;18.036;2023-10-08T04:28:55;7.85;;;3.22;;
72427;SDS011;60419;48.880;18.036;2023-10-08T04:31:47;7.93;;;2.80;;
72427;SDS011;60419;48.880;18.036;2023-10-08T04:34:39;9.40;;;3.72;;
72427;SDS011;60419;48.880;18.036;2023-10-08T04:37:30;6.93;;;2.67;;
72427;SDS011;60419;48.880;18.036;2023-10-08T04:40:18;7.07;;;2.50;;
72427;SDS011;60419;48.880;18.036;2023-10-08T04:43:08;8.27;;;3.20;;
72427;SDS011;60419;48.880;18.036;2023-10-08T04:45:58;6.45;;;2.60;;
72427;SDS011;60419;48.880;18.036;2023-10-08T04:48:44;10.98;;;3.67;;
72427;SDS011;60419;48.880;18.036;2023-10-08T04:51:32;7.30;;;2.70;;
72427;SDS011;60419;48.880;18.036;2023-10-08T04:54:28;7.53;;;2.65;;
72427;SDS011;60419;48.880;18.036;2023-10-08T04:57:18;6.95;;;2.58;;
72427;SDS011;60419;48.880;18.036;2023-10-08T05:00:07;8.93;;;2.53;;
72427;SDS011;60419;48.880;18.036;2023-10-08T05:03:00;7.93;;;2.92;;
72427;SDS011;60419;48.880;18.036;2023-10-08T05:05:55;7.63;;;2.80;;
72427;SDS011;60419;48.880;18.036;2023-10-08T05:08:54;8.75;;;3.15;;
72427;SDS011;60419;48.880;18.036;2023-10-08T05:11:55;7.40;;;2.85;;
72427;SDS011;60419;48.880;18.036;2023-10-08T05:14:40;6.05;;;2.95;;
72427;SDS011;60419;48.880;18.036;2023-10-08T05:17:41;6.83;;;3.10;;
72427;SDS011;60419;48.880;18.036;2023-10-08T05:20:36;5.55;;;2.58;;
72427;SDS011;60419;48.880;18.036;2023-10-08T05:23:33;10.02;;;3.00;;
72427;SDS011;60419;48.880;18.036;2023-10-08T05:26:38;13.27;;;2.70;;
72427;SDS011;60419;48.880;18.036;2023-10-08T05:29:29;4.95;;;2.60;;
72427;SDS011;60419;48.880;18.036;2023-10-08T05:32:34;7.63;;;2.90;;
72427;SDS011;60419;48.880;18.036;2023-10-08T05:35:29;9.98;;;3.00;;
72427;SDS011;60419;48.880;18.036;2023-10-08T05:38:23;6.88;;;2.45;;
72427;SDS011;60419;48.880;18.036;2023-10-08T05:41:14;9.25;;;3.08;;
72427;SDS011;60419;48.880;18.036;2023-10-08T05:44:13;8.60;;;2.97;;
72427;SDS011;60419;48.880;18.036;2023-10-08T05:47:21;9.02;;;3.05;;
72427;SDS011;60419;48.880;18.036;2023-10-08T05:50:26;7.25;;;2.70;;
72427;SDS011;60419;48.880;18.036;2023-10-08T05:53:11;8.32;;;2.72;;
72427;SDS011;60419;48.880;18.036;2023-10-08T05:56:17;6.95;;;2.85;;
72427;SDS011;60419;48.880;18.036;2023-10-08T05:59:13;7.57;;;2.67;;
72427;SDS011;60419;48.880;18.036;2023-10-08T06:02:03;5.53;;;2.30;;
72427;SDS011;60419;48.880;18.036;2023-10-08T06:04:51;7.57;;;2.47;;
72427;SDS011;60419;48.880;18.036;2023-10-08T06:07:56;7.10;;;2.53;;
72427;SDS011;60419;48.880;18.036;2023-10-08T06:10:55;10.18;;;3.10;;
72427;SDS011;60419;48.880;18.036;2023-10-08T06:13:46;5.88;;;3.10;;
72427;SDS011;60419;48.880;18.036;2023-10-08T06:16:41;7.63;;;2.40;;
72427;SDS011;60419;48.880;18.036;2023-10-08T06:19:27;11.98;;;2.95;;
72427;SDS011;60419;48.880;18.036;2023-10-08T06:22:12;10.55;;;3.10;;
72427;SDS011;60419;48.880;18.036;2023-10-08T06:24:57;7.93;;;3.03;;
72427;SDS011;60419;48.880;18.036;2023-10-08T06:28:01;7.70;;;2.90;;
72427;SDS011;60419;48.880;18.036;2023-10-08T06:30:48;7.53;;;3.03;;
72427;SDS011;60419;48.880;18.036;2023-10-08T06:33:34;7.10;;;3.17;;
72427;SDS011;60419;48.880;18.036;2023-10-08T06:36:19;5.85;;;2.00;;
72427;SDS011;60419;48.880;18.036;2023-10-08T06:39:09;7.03;;;2.15;;
72427;SDS011;60419;48.880;18.036;2023-10-08T06:42:03;3.15;;;1.30;;
72427;SDS011;60419;48.880;18.036;2023-10-08T06:44:49;3.40;;;1.13;;
72427;SDS011;60419;48.880;18.036;2023-10-08T06:47:37;1.58;;;0.90;;
72427;SDS011;60419;48.880;18.036;2023-10-08T06:50:23;2.15;;;0.93;;
72427;SDS011;60419;48.880;18.036;2023-10-08T06:53:08;1.75;;;1.00;;
72427;SDS011;60419;48.880;18.036;2023-10-08T06:55:54;2.67;;;0.90;;
72427;SDS011;60419;48.880;18.036;2023-10-08T06:58:42;1.33;;;0.65;;
72427;SDS011;60419;48.880;18.036;2023-10-08T07:01:33;0.50;;;0.50;;
72427;SDS011;60419;48.880;18.036;2023-10-08T07:04:24;0.50;;;0.50;;
72427;SDS011;60419;48.880;18.036;2023-10-08T07:07:09;1.58;;;0.43;;
72427;SDS011;60419;48.880;18.036;2023-10-08T07:09:56;0.30;;;0.30;;
72427;SDS011;60419;48.880;18.036;2023-10-08T07:12:41;0.50;;;0.40;;
72427;SDS011;60419;48.880;18.036;2023-10-08T07:15:30;0.30;;;0.30;;
72427;SDS011;60419;48.880;18.036;2023-10-08T07:18:15;0.30;;;0.30;;
72427;SDS011;60419;48.880;18.036;2023-10-08T07:21:09;0.30;;;0.30;;
72427;SDS011;60419;48.880;18.036;2023-10-08T07:23:58;0.93;;;0.52;;
72427;SDS011;60419;48.880;18.036;2023-10-08T07:26:44;0.43;;;0.43;;
72427;SDS011;60419;48.880;18.036;2023-10-08T07:29:32;0.35;;;0.35;;
72427;SDS011;60419;48.880;18.036;2023-10-08T07:32:18;0.35;;;0.32;;
72427;SDS011;60419;48.880;18.036;2023-10-08T07:35:07;0.52;;;0.40;;
72427;SDS011;60419;48.880;18.036;2023-10-08T07:38:01;0.40;;;0.40;;
72427;SDS011;60419;48.880;18.036;2023-10-08T07:40:47;0.60;;;0.30;;
72427;SDS011;60419;48.880;18.036;2023-10-08T07:43:33;0.30;;;0.30;;
72427;SDS011;60419;48.880;18.036;2023-10-08T07:46:18;2.05;;;0.40;;
72427;SDS011;60419;48.880;18.036;2023-10-08T07:49:04;0.30;;;0.30;;
72427;SDS011;60419;48.880;18.036;2023-10-08T07:51:50;0.30;;;0.30;;
72427;SDS011;60419;48.880;18.036;2023-10-08T07:54:36;0.30;;;0.30;;
72427;SDS011;60419;48.880;18.036;2023-10-08T07:57:21;0.30;;;0.30;;
72427;SDS011;60419;48.880;18.036;2023-10-08T08:00:13;0.30;;;0.30;;
72427;SDS011;60419;48.880;18.036;2023-10-08T08:03:10;0.90;;;0.40;;
72427;SDS011;60419;48.880;18.036;2023-10-08T08:05:56;2.70;;;0.40;;
72427;SDS011;60419;48.880;18.036;2023-10-08T08:08:43;0.95;;;0.43;;
72427;SDS011;60419;48.880;18.036;2023-10-08T08:11:29;1.20;;;0.32;;
72427;SDS011;60419;48.880;18.036;2023-10-08T08:14:15;2.35;;;0.90;;
72427;SDS011;60419;48.880;18.036;2023-10-08T08:17:09;2.05;;;0.75;;
72427;SDS011;60419;48.880;18.036;2023-10-08T08:20:01;0.32;;;0.30;;
72427;SDS011;60419;48.880;18.036;2023-10-08T08:23:02;0.32;;;0.30;;
72427;SDS011;60419;48.880;18.036;2023-10-08T08:25:51;0.47;;;0.40;;
72427;SDS011;60419;48.880;18.036;2023-10-08T08:28:57;1.08;;;0.50;;
72427;SDS011;60419;48.880;18.036;2023-10-08T08:31:45;0.40;;;0.40;;
72427;SDS011;60419;48.880;18.036;2023-10-08T08:34:31;0.88;;;0.85;;
72427;SDS011;60419;48.880;18.036;2023-10-08T08:37:16;0.45;;;0.45;;
72427;SDS011;60419;48.880;18.036;2023-10-08T08:40:02;0.35;;;0.35;;
72427;SDS011;60419;48.880;18.036;2023-10-08T08:43:03;0.90;;;0.40;;
72427;SDS011;60419;48.880;18.036;2023-10-08T08:45:50;0.40;;;0.40;;
72427;SDS011;60419;48.880;18.036;2023-10-08T08:48:36;0.40;;;0.40;;
72427;SDS011;60419;48.880;18.036;2023-10-08T08:51:23;0.40;;;0.40;;
72427;SDS011;60419;48.880;18.036;2023-10-08T08:54:09;0.63;;;0.40;;
72427;SDS011;60419;48.880;18.036;2023-10-08T08:56:54;0.50;;;0.50;;
72427;SDS011;60419;48.880;18.036;2023-10-08T08:59:49;0.90;;;0.40;;
72427;SDS011;60419;48.880;18.036;2023-10-08T09:02:38;2.03;;;0.50;;
72427;SDS011;60419;48.880;18.036;2023-10-08T09:05:23;0.70;;;0.50;;
72427;SDS011;60419;48.880;18.036;2023-10-08T09:08:10;0.50;;;0.40;;
72427;SDS011;60419;48.880;18.036;2023-10-08T09:10:57;0.70;;;0.45;;
72427;SDS011;60419;48.880;18.036;2023-10-08T09:13:46;0.32;;;0.32;;
72427;SDS011;60419;48.880;18.036;2023-10-08T09:16:34;0.45;;;0.40;;
72427;SDS011;60419;48.880;18.036;2023-10-08T09:19:20;0.75;;;0.50;;
72427;SDS011;60419;48.880;18.036;2023-10-08T09:22:11;1.00;;;0.60;;
72427;SDS011;60419;48.880;18.036;2023-10-08T09:24:57;0.63;;;0.40;;
72427;SDS011;60419;48.880;18.036;2023-10-08T09:27:44;0.55;;;0.50;;
72427;SDS011;60419;48.880;18.036;2023-10-08T09:30:37;1.15;;;0.50;;
72427;SDS011;60419;48.880;18.036;2023-10-08T09:33:25;1.17;;;0.52;;
72427;SDS011;60419;48.880;18.036;2023-10-08T09:36:10;0.68;;;0.52;;
72427;SDS011;60419;48.880;18.036;2023-10-08T09:39:01;2.67;;;0.82;;
72427;SDS011;60419;48.880;18.036;2023-10-08T09:41:55;1.10;;;0.60;;
72427;SDS011;60419;48.880;18.036;2023-10-08T09:44:41;2.15;;;0.80;;
72427;SDS011;60419;48.880;18.036;2023-10-08T09:47:27;0.93;;;0.70;;
72427;SDS011;60419;48.880;18.036;2023-10-08T09:50:16;1.98;;;0.80;;
72427;SDS011;60419;48.880;18.036;2023-10-08T09:53:10;1.38;;;0.82;;
72427;SDS011;60419;48.880;18.036;2023-10-08T09:56:01;1.02;;;0.63;;
72427;SDS011;60419;48.880;18.036;2023-10-08T09:58:50;1.77;;;0.85;;
72427;SDS011;60419;48.880;18.036;2023-10-08T10:01:40;1.75;;;0.90;;
72427;SDS011;60419;48.880;18.036;2023-10-08T10:04:29;1.40;;;0.82;;
72427;SDS011;60419;48.880;18.036;2023-10-08T10:07:17;1.48;;;0.90;;
72427;SDS011;60419;48.880;18.036;2023-10-08T10:10:02;1.10;;;0.70;;
72427;SDS011;60419;48.880;18.036;2023-10-08T10:13:10;4.20;;;1.00;;
72427;SDS011;60419;48.880;18.036;2023-10-08T10:15:56;3.00;;;0.90;;
72427;SDS011;60419;48.880;18.036;2023-10-08T10:18:46;1.80;;;0.90;;
72427;SDS011;60419;48.880;18.036;2023-10-08T10:21:34;2.35;;;1.08;;
72427;SDS011;60419;48.880;18.036;2023-10-08T10:24:22;3.50;;;1.10;;
72427;SDS011;60419;48.880;18.036;2023-10-08T10:27:18;6.47;;;1.02;;
72427;SDS011;60419;48.880;18.036;2023-10-08T10:30:04;3.55;;;1.30;;
72427;SDS011;60419;48.880;18.036;2023-10-08T10:32:53;2.97;;;1.23;;
72427;SDS011;60419;48.880;18.036;2023-10-08T10:35:39;2.65;;;1.30;;
72427;SDS011;60419;48.880;18.036;2023-10-08T10:38:28;2.75;;;1.40;;
72427;SDS011;60419;48.880;18.036;2023-10-08T10:41:14;5.03;;;1.40;;
72427;SDS011;60419;48.880;18.036;2023-10-08T10:44:02;4.95;;;1.40;;
72427;SDS011;60419;48.880;18.036;2023-10-08T10:46:53;4.13;;;1.10;;
72427;SDS011;60419;48.880;18.036;2023-10-08T10:50:08;3.83;;;1.42;;
72427;SDS011;60419;48.880;18.036;2023-10-08T10:53:19;2.78;;;1.58;;
72427;SDS011;60419;48.880;18.036;2023-10-08T10:56:04;3.42;;;1.58;;
72427;SDS011;60419;48.880;18.036;2023-10-08T10:58:58;3.05;;;1.30;;
72427;SDS011;60419;48.880;18.036;2023-10-08T11:01:44;2.58;;;1.15;;
72427;SDS011;60419;48.880;18.036;2023-10-08T11:04:34;3.80;;;1.50;;
72427;SDS011;60419;48.880;18.036;2023-10-08T11:07:32;5.82;;;1.70;;
72427;SDS011;60419;48.880;18.036;2023-10-08T11:10:19;4.90;;;1.40;;
72427;SDS011;60419;48.880;18.036;2023-10-08T11:13:09;3.80;;;1.20;;
72427;SDS011;60419;48.880;18.036;2023-10-08T11:16:02;3.67;;;1.30;;
72427;SDS011;60419;48.880;18.036;2023-10-08T11:18:50;3.80;;;1.35;;
72427;SDS011;60419;48.880;18.036;2023-10-08T11:21:49;4.97;;;1.15;;
72427;SDS011;60419;48.880;18.036;2023-10-08T11:24:35;2.78;;;1.20;;
72427;SDS011;60419;48.880;18.036;2023-10-08T11:27:22;2.92;;;1.40;;
72427;SDS011;60419;48.880;18.036;2023-10-08T11:30:13;4.07;;;1.50;;
72427;SDS011;60419;48.880;18.036;2023-10-08T11:33:02;3.63;;;1.55;;
72427;SDS011;60419;48.880;18.036;2023-10-08T11:35:54;3.22;;;1.38;;
72427;SDS011;60419;48.880;18.036;2023-10-08T11:38:46;5.82;;;2.40;;
72427;SDS011;60419;48.880;18.036;2023-10-08T11:41:38;2.50;;;1.00;;
72427;SDS011;60419;48.880;18.036;2023-10-08T11:44:34;4.03;;;1.48;;
72427;SDS011;60419;48.880;18.036;2023-10-08T11:47:20;3.25;;;1.38;;
72427;SDS011;60419;48.880;18.036;2023-10-08T11:50:06;3.30;;;1.13;;
72427;SDS011;60419;48.880;18.036;2023-10-08T11:52:59;4.55;;;1.15;;
72427;SDS011;60419;48.880;18.036;2023-10-08T11:55:47;3.30;;;1.20;;
72427;SDS011;60419;48.880;18.036;2023-10-08T11:58:33;5.10;;;1.50;;
72427;SDS011;60419;48.880;18.036;2023-10-08T12:01:25;3.60;;;1.30;;
72427;SDS011;60419;48.880;18.036;2023-10-08T12:04:12;3.22;;;1.30;;
72427;SDS011;60419;48.880;18.036;2023-10-08T12:07:01;3.45;;;1.30;;
72427;SDS011;60419;48.880;18.036;2023-10-08T12:09:52;4.72;;;1.50;;
72427;SDS011;60419;48.880;18.036;2023-10-08T12:12:39;4.70;;;1.67;;
72427;SDS011;60419;48.880;18.036;2023-10-08T12:15:25;4.38;;;1.50;;
72427;SDS011;60419;48.880;18.036;2023-10-08T12:18:23;4.85;;;1.50;;
72427;SDS011;60419;48.880;18.036;2023-10-08T12:21:11;3.53;;;1.30;;
72427;SDS011;60419;48.880;18.036;2023-10-08T12:24:00;3.83;;;1.20;;
72427;SDS011;60419;48.880;18.036;2023-10-08T12:26:50;4.67;;;1.70;;
72427;SDS011;60419;48.880;18.036;2023-10-08T12:29:36;6.85;;;2.80;;
72427;SDS011;60419;48.880;18.036;2023-10-08T12:32:23;6.72;;;1.58;;
72427;SDS011;60419;48.880;18.036;2023-10-08T12:35:11;6.35;;;1.63;;
72427;SDS011;60419;48.880;18.036;2023-10-08T12:37:59;4.07;;;1.20;;
72427;SDS011;60419;48.880;18.036;2023-10-08T12:40:45;3.20;;;1.10;;
72427;SDS011;60419;48.880;18.036;2023-10-08T12:43:40;2.03;;;0.95;;
72427;SDS011;60419;48.880;18.036;2023-10-08T12:46:37;4.82;;;1.98;;
72427;SDS011;60419;48.880;18.036;2023-10-08T12:49:22;3.65;;;1.35;;
72427;SDS011;60419;48.880;18.036;2023-10-08T12:52:08;3.95;;;1.25;;
72427;SDS011;60419;48.880;18.036;2023-10-08T12:54:54;4.40;;;1.60;;
72427;SDS011;60419;48.880;18.036;2023-10-08T12:57:40;3.78;;;1.45;;
72427;SDS011;60419;48.880;18.036;2023-10-08T13:00:27;3.00;;;1.25;;
72427;SDS011;60419;48.880;18.036;2023-10-08T13:03:12;4.65;;;1.55;;
72427;SDS011;60419;48.880;18.036;2023-10-08T13:06:08;4.18;;;1.33;;
72427;SDS011;60419;48.880;18.036;2023-10-08T13:08:59;3.03;;;1.10;;
72427;SDS011;60419;48.880;18.036;2023-10-08T13:11:45;2.22;;;1.25;;
72427;SDS011;60419;48.880;18.036;2023-10-08T13:14:30;3.05;;;1.50;;
72427;SDS011;60419;48.880;18.036;2023-10-08T13:17:16;4.43;;;1.63;;
72427;SDS011;60419;48.880;18.036;2023-10-08T13:20:01;3.42;;;1.50;;
72427;SDS011;60419;48.880;18.036;2023-10-08T13:22:47;3.35;;;1.55;;
72427;SDS011;60419;48.880;18.036;2023-10-08T13:25:32;2.10;;;1.17;;
72427;SDS011;60419;48.880;18.036;2023-10-08T13:28:24;5.03;;;2.17;;
72427;SDS011;60419;48.880;18.036;2023-10-08T13:31:12;5.07;;;1.80;;
72427;SDS011;60419;48.880;18.036;2023-10-08T13:33:57;2.10;;;0.98;;
72427;SDS011;60419;48.880;18.036;2023-10-08T13:36:45;3.30;;;1.40;;
72427;SDS011;60419;48.880;18.036;2023-10-08T13:39:34;4.10;;;1.60;;
72427;SDS011;60419;48.880;18.036;2023-10-08T13:42:20;2.72;;;1.30;;
72427;SDS011;60419;48.880;18.036;2023-10-08T13:45:05;3.20;;;1.23;;
72427;SDS011;60419;48.880;18.036;2023-10-08T13:47:53;4.13;;;1.40;;
72427;SDS011;60419;48.880;18.036;2023-10-08T13:50:41;4.30;;;1.88;;
72427;SDS011;60419;48.880;18.036;2023-10-08T13:53:26;4.07;;;1.55;;
72427;SDS011;60419;48.880;18.036;2023-10-08T13:56:14;3.70;;;1.65;;
72427;SDS011;60419;48.880;18.036;2023-10-08T13:59:04;5.47;;;1.40;;
72427;SDS011;60419;48.880;18.036;2023-10-08T14:01:58;3.40;;;1.50;;
72427;SDS011;60419;48.880;18.036;2023-10-08T14:04:46;3.72;;;1.75;;
72427;SDS011;60419;48.880;18.036;2023-10-08T14:07:35;3.90;;;1.48;;
72427;SDS011;60419;48.880;18.036;2023-10-08T14:10:21;2.85;;;1.42;;
72427;SDS011;60419;48.880;18.036;2023-10-08T14:13:15;3.70;;;1.50;;
72427;SDS011;60419;48.880;18.036;2023-10-08T14:16:04;2.97;;;1.45;;
72427;SDS011;60419;48.880;18.036;2023-10-08T14:21:44;4.38;;;1.40;;
72427;SDS011;60419;48.880;18.036;2023-10-08T14:24:39;3.88;;;1.70;;
72427;SDS011;60419;48.880;18.036;2023-10-08T14:27:28;3.85;;;1.52;;
72427;SDS011;60419;48.880;18.036;2023-10-08T14:30:16;3.20;;;1.67;;
72427;SDS011;60419;48.880;18.036;2023-10-08T14:33:06;2.65;;;1.10;;
72427;SDS011;60419;48.880;18.036;2023-10-08T14:35:54;2.55;;;1.20;;
72427;SDS011;60419;48.880;18.036;2023-10-08T14:38:58;3.45;;;1.40;;
72427;SDS011;60419;48.880;18.036;2023-10-08T14:42:02;3.95;;;1.48;;
72427;SDS011;60419;48.880;18.036;2023-10-08T14:45:06;3.55;;;1.50;;
72427;SDS011;60419;48.880;18.036;2023-10-08T14:47:56;4.78;;;1.60;;
72427;SDS011;60419;48.880;18.036;2023-10-08T14:50:42;2.97;;;1.15;;
72427;SDS011;60419;48.880;18.036;2023-10-08T14:53:28;3.83;;;1.40;;
72427;SDS011;60419;48.880;18.036;2023-10-08T14:56:15;2.92;;;1.50;;
72427;SDS011;60419;48.880;18.036;2023-10-08T14:59:01;3.28;;;1.23;;
72427;SDS011;60419;48.880;18.036;2023-10-08T15:01:47;3.45;;;1.38;;
72427;SDS011;60419;48.880;18.036;2023-10-08T15:04:32;3.25;;;1.50;;
72427;SDS011;60419;48.880;18.036;2023-10-08T15:07:20;4.10;;;1.38;;
72427;SDS011;60419;48.880;18.036;2023-10-08T15:10:06;2.50;;;1.38;;
72427;SDS011;60419;48.880;18.036;2023-10-08T15:12:54;3.22;;;1.50;;
72427;SDS011;60419;48.880;18.036;2023-10-08T15:15:39;3.90;;;1.60;;
72427;SDS011;60419;48.880;18.036;2023-10-08T15:18:25;2.45;;;1.20;;
72427;SDS011;60419;48.880;18.036;2023-10-08T15:21:17;3.20;;;1.33;;
72427;SDS011;60419;48.880;18.036;2023-10-08T15:24:02;4.18;;;1.40;;
72427;SDS011;60419;48.880;18.036;2023-10-08T15:26:55;2.40;;;1.13;;
72427;SDS011;60419;48.880;18.036;2023-10-08T15:29:40;3.10;;;1.30;;
72427;SDS011;60419;48.880;18.036;2023-10-08T15:32:26;3.50;;;1.63;;
72427;SDS011;60419;48.880;18.036;2023-10-08T15:35:12;2.70;;;1.10;;
72427;SDS011;60419;48.880;18.036;2023-10-08T15:38:05;2.70;;;1.08;;
72427;SDS011;60419;48.880;18.036;2023-10-08T15:40:50;2.70;;;1.25;;
72427;SDS011;60419;48.880;18.036;2023-10-08T15:43:35;2.72;;;1.13;;
72427;SDS011;60419;48.880;18.036;2023-10-08T15:46:21;2.63;;;1.05;;
72427;SDS011;60419;48.880;18.036;2023-10-08T15:49:06;2.80;;;1.48;;
72427;SDS011;60419;48.880;18.036;2023-10-08T15:51:51;4.07;;;1.38;;
72427;SDS011;60419;48.880;18.036;2023-10-08T15:54:37;2.50;;;1.10;;
72427;SDS011;60419;48.880;18.036;2023-10-08T15:57:23;2.65;;;1.30;;
72427;SDS011;60419;48.880;18.036;2023-10-08T16:00:08;2.80;;;1.05;;
72427;SDS011;60419;48.880;18.036;2023-10-08T16:02:54;2.13;;;1.02;;
72427;SDS011;60419;48.880;18.036;2023-10-08T16:05:40;1.67;;;0.90;;
72427;SDS011;60419;48.880;18.036;2023-10-08T16:08:27;2.60;;;1.10;;
72427;SDS011;60419;48.880;18.036;2023-10-08T16:11:12;3.65;;;1.27;;
72427;SDS011;60419;48.880;18.036;2023-10-08T16:13:58;3.97;;;0.98;;
72427;SDS011;60419;48.880;18.036;2023-10-08T16:16:44;3.15;;;1.20;;
72427;SDS011;60419;48.880;18.036;2023-10-08T16:19:32;2.28;;;1.10;;
72427;SDS011;60419;48.880;18.036;2023-10-08T16:22:17;3.80;;;1.13;;
72427;SDS011;60419;48.880;18.036;2023-10-08T16:25:03;3.90;;;1.52;;
72427;SDS011;60419;48.880;18.036;2023-10-08T16:27:51;3.67;;;1.58;;
72427;SDS011;60419;48.880;18.036;2023-10-08T16:30:37;3.05;;;1.50;;
72427;SDS011;60419;48.880;18.036;2023-10-08T16:33:23;3.72;;;1.77;;
72427;SDS011;60419;48.880;18.036;2023-10-08T16:36:09;3.33;;;1.50;;
72427;SDS011;60419;48.880;18.036;2023-10-08T16:38:54;4.47;;;1.63;;
72427;SDS011;60419;48.880;18.036;2023-10-08T16:41:40;3.40;;;1.90;;
72427;SDS011;60419;48.880;18.036;2023-10-08T16:44:25;4.20;;;1.75;;
72427;SDS011;60419;48.880;18.036;2023-10-08T16:47:11;5.70;;;2.33;;
72427;SDS011;60419;48.880;18.036;2023-10-08T16:49:56;4.13;;;1.50;;